METAR Data
IDs: Format: Raw Decoded Include TAF

Data at: 1338 UTC 07 Jul 2020

METAR for:KOKV (Winchester Rgnl, VA, US)
Text:KOKV 071335Z AUTO 00000KT 10SM OVC011 23/20 A3006 RMK AO2
Temperature: 23.0°C ( 73°F)
Dewpoint: 20.0°C ( 68°F) [RH = 83%]
Pressure (altimeter):30.06 inches Hg (1018.0 mb)
Winds:calm
Visibility:10 or more sm (16+ km)
Ceiling:1100 feet AGL
Clouds: overcast cloud deck at 1100 feet AGL
QC Flag:automated observation with no human augmentation